sensor_id;sensor_type;location;lat;lon;timestamp;P1;durP1;ratioP1;P2;durP2;ratioP2
39102;SDS011;24847;48.218;16.414;2023-02-15T00:04:27;14.75;;;10.82;;
39102;SDS011;24847;48.218;16.414;2023-02-15T00:09:47;15.50;;;11.53;;
39102;SDS011;24847;48.218;16.414;2023-02-15T00:14:49;13.38;;;10.25;;
39102;SDS011;24847;48.218;16.414;2023-02-15T00:19:52;14.13;;;10.82;;
39102;SDS011;24847;48.218;16.414;2023-02-15T00:24:55;15.43;;;11.55;;
39102;SDS011;24847;48.218;16.414;2023-02-15T00:29:58;14.27;;;11.20;;
39102;SDS011;24847;48.218;16.414;2023-02-15T00:35:00;15.23;;;10.98;;
39102;SDS011;24847;48.218;16.414;2023-02-15T00:40:04;13.68;;;10.68;;
39102;SDS011;24847;48.218;16.414;2023-02-15T00:45:08;17.60;;;11.52;;
39102;SDS011;24847;48.218;16.414;2023-02-15T00:50:11;15.05;;;11.25;;
39102;SDS011;24847;48.218;16.414;2023-02-15T00:55:14;14.63;;;11.48;;
39102;SDS011;24847;48.218;16.414;2023-02-15T01:00:17;17.50;;;12.63;;
39102;SDS011;24847;48.218;16.414;2023-02-15T01:05:19;17.10;;;12.43;;
39102;SDS011;24847;48.218;16.414;2023-02-15T01:10:23;16.13;;;12.02;;
39102;SDS011;24847;48.218;16.414;2023-02-15T01:15:26;16.17;;;12.38;;
39102;SDS011;24847;48.218;16.414;2023-02-15T01:20:28;17.88;;;13.15;;
39102;SDS011;24847;48.218;16.414;2023-02-15T01:25:32;16.30;;;12.50;;
39102;SDS011;24847;48.218;16.414;2023-02-15T01:30:37;17.65;;;12.70;;
39102;SDS011;24847;48.218;16.414;2023-02-15T01:35:39;17.00;;;12.60;;
39102;SDS011;24847;48.218;16.414;2023-02-15T01:40:43;18.33;;;12.43;;
39102;SDS011;24847;48.218;16.414;2023-02-15T01:45:45;15.38;;;11.20;;
39102;SDS011;24847;48.218;16.414;2023-02-15T01:50:51;19.52;;;13.45;;
39102;SDS011;24847;48.218;16.414;2023-02-15T01:55:58;16.60;;;12.25;;
39102;SDS011;24847;48.218;16.414;2023-02-15T02:01:06;16.52;;;12.43;;
39102;SDS011;24847;48.218;16.414;2023-02-15T02:06:09;18.52;;;12.60;;
39102;SDS011;24847;48.218;16.414;2023-02-15T02:11:13;16.95;;;12.70;;
39102;SDS011;24847;48.218;16.414;2023-02-15T02:16:17;17.95;;;12.88;;
39102;SDS011;24847;48.218;16.414;2023-02-15T02:27:30;16.10;;;10.75;;
39102;SDS011;24847;48.218;16.414;2023-02-15T02:32:53;15.40;;;10.73;;
39102;SDS011;24847;48.218;16.414;2023-02-15T02:38:32;14.88;;;11.18;;
39102;SDS011;24847;48.218;16.414;2023-02-15T02:43:48;17.17;;;11.50;;
39102;SDS011;24847;48.218;16.414;2023-02-15T02:48:57;16.50;;;11.30;;
39102;SDS011;24847;48.218;16.414;2023-02-15T02:54:00;15.07;;;11.20;;
39102;SDS011;24847;48.218;16.414;2023-02-15T02:59:09;18.45;;;11.48;;
39102;SDS011;24847;48.218;16.414;2023-02-15T03:04:16;15.05;;;10.70;;
39102;SDS011;24847;48.218;16.414;2023-02-15T03:09:22;15.23;;;11.07;;
39102;SDS011;24847;48.218;16.414;2023-02-15T03:14:34;15.02;;;10.88;;
39102;SDS011;24847;48.218;16.414;2023-02-15T03:19:39;16.98;;;11.13;;
39102;SDS011;24847;48.218;16.414;2023-02-15T03:24:48;17.55;;;12.20;;
39102;SDS011;24847;48.218;16.414;2023-02-15T03:29:57;16.40;;;11.98;;
39102;SDS011;24847;48.218;16.414;2023-02-15T03:35:03;15.32;;;11.40;;
39102;SDS011;24847;48.218;16.414;2023-02-15T03:40:07;15.52;;;11.00;;
39102;SDS011;24847;48.218;16.414;2023-02-15T03:45:33;17.05;;;11.52;;
39102;SDS011;24847;48.218;16.414;2023-02-15T03:50:40;15.60;;;11.30;;
39102;SDS011;24847;48.218;16.414;2023-02-15T03:56:00;14.60;;;10.75;;
39102;SDS011;24847;48.218;16.414;2023-02-15T04:01:03;15.75;;;10.52;;
39102;SDS011;24847;48.218;16.414;2023-02-15T04:06:33;15.32;;;11.73;;
39102;SDS011;24847;48.218;16.414;2023-02-15T04:11:35;15.57;;;11.70;;
39102;SDS011;24847;48.218;16.414;2023-02-15T04:16:37;16.42;;;12.32;;
39102;SDS011;24847;48.218;16.414;2023-02-15T04:21:41;15.40;;;11.70;;
39102;SDS011;24847;48.218;16.414;2023-02-15T04:27:00;16.98;;;12.43;;
39102;SDS011;24847;48.218;16.414;2023-02-15T04:32:04;19.48;;;12.27;;
39102;SDS011;24847;48.218;16.414;2023-02-15T04:37:08;16.90;;;12.32;;
39102;SDS011;24847;48.218;16.414;2023-02-15T04:42:11;15.60;;;11.63;;
39102;SDS011;24847;48.218;16.414;2023-02-15T04:47:13;18.13;;;12.52;;
39102;SDS011;24847;48.218;16.414;2023-02-15T04:52:17;19.27;;;13.48;;
39102;SDS011;24847;48.218;16.414;2023-02-15T04:57:20;18.10;;;13.05;;
39102;SDS011;24847;48.218;16.414;2023-02-15T05:02:22;17.88;;;13.15;;
39102;SDS011;24847;48.218;16.414;2023-02-15T05:07:26;19.08;;;12.93;;
39102;SDS011;24847;48.218;16.414;2023-02-15T05:12:28;20.23;;;14.45;;
39102;SDS011;24847;48.218;16.414;2023-02-15T05:17:30;21.00;;;14.05;;
39102;SDS011;24847;48.218;16.414;2023-02-15T05:22:34;19.52;;;13.82;;
39102;SDS011;24847;48.218;16.414;2023-02-15T05:27:36;18.40;;;13.52;;
39102;SDS011;24847;48.218;16.414;2023-02-15T05:32:56;20.27;;;14.00;;
39102;SDS011;24847;48.218;16.414;2023-02-15T05:38:00;21.90;;;14.50;;
39102;SDS011;24847;48.218;16.414;2023-02-15T05:43:02;19.77;;;14.23;;
39102;SDS011;24847;48.218;16.414;2023-02-15T05:48:04;18.90;;;13.57;;
39102;SDS011;24847;48.218;16.414;2023-02-15T05:53:08;19.00;;;12.65;;
39102;SDS011;24847;48.218;16.414;2023-02-15T05:58:10;17.13;;;12.65;;
39102;SDS011;24847;48.218;16.414;2023-02-15T06:03:12;16.88;;;12.40;;
39102;SDS011;24847;48.218;16.414;2023-02-15T06:08:16;19.77;;;13.45;;
39102;SDS011;24847;48.218;16.414;2023-02-15T06:13:18;19.88;;;13.85;;
39102;SDS011;24847;48.218;16.414;2023-02-15T06:18:21;19.52;;;13.55;;
39102;SDS011;24847;48.218;16.414;2023-02-15T06:23:25;16.98;;;12.80;;
39102;SDS011;24847;48.218;16.414;2023-02-15T06:28:27;18.02;;;12.70;;
39102;SDS011;24847;48.218;16.414;2023-02-15T06:33:29;21.90;;;14.93;;
39102;SDS011;24847;48.218;16.414;2023-02-15T06:38:35;18.05;;;13.18;;
39102;SDS011;24847;48.218;16.414;2023-02-15T06:43:37;22.00;;;15.57;;
39102;SDS011;24847;48.218;16.414;2023-02-15T06:48:39;16.52;;;12.13;;
39102;SDS011;24847;48.218;16.414;2023-02-15T06:53:43;22.90;;;15.57;;
39102;SDS011;24847;48.218;16.414;2023-02-15T06:58:45;16.92;;;12.35;;
39102;SDS011;24847;48.218;16.414;2023-02-15T07:03:49;17.05;;;10.90;;
39102;SDS011;24847;48.218;16.414;2023-02-15T07:08:53;15.90;;;10.23;;
39102;SDS011;24847;48.218;16.414;2023-02-15T07:13:55;16.90;;;11.13;;
39102;SDS011;24847;48.218;16.414;2023-02-15T07:18:57;17.88;;;12.13;;
39102;SDS011;24847;48.218;16.414;2023-02-15T07:24:01;20.42;;;14.57;;
39102;SDS011;24847;48.218;16.414;2023-02-15T07:29:04;21.90;;;13.98;;
39102;SDS011;24847;48.218;16.414;2023-02-15T07:34:06;20.38;;;14.48;;
39102;SDS011;24847;48.218;16.414;2023-02-15T07:39:10;16.95;;;12.77;;
39102;SDS011;24847;48.218;16.414;2023-02-15T07:44:13;24.17;;;15.60;;
39102;SDS011;24847;48.218;16.414;2023-02-15T07:49:16;18.50;;;12.88;;
39102;SDS011;24847;48.218;16.414;2023-02-15T07:54:19;18.23;;;13.27;;
39102;SDS011;24847;48.218;16.414;2023-02-15T07:59:22;18.17;;;12.63;;
39102;SDS011;24847;48.218;16.414;2023-02-15T08:04:24;18.33;;;12.75;;
39102;SDS011;24847;48.218;16.414;2023-02-15T08:09:28;17.27;;;11.95;;
39102;SDS011;24847;48.218;16.414;2023-02-15T08:14:30;19.20;;;12.95;;
39102;SDS011;24847;48.218;16.414;2023-02-15T08:19:33;19.45;;;12.93;;
39102;SDS011;24847;48.218;16.414;2023-02-15T08:24:37;15.48;;;11.20;;
39102;SDS011;24847;48.218;16.414;2023-02-15T08:29:39;21.52;;;14.20;;
39102;SDS011;24847;48.218;16.414;2023-02-15T08:34:42;21.80;;;14.15;;
39102;SDS011;24847;48.218;16.414;2023-02-15T08:39:46;20.60;;;13.38;;
39102;SDS011;24847;48.218;16.414;2023-02-15T08:44:48;18.02;;;11.98;;
39102;SDS011;24847;48.218;16.414;2023-02-15T08:49:50;16.92;;;11.80;;
39102;SDS011;24847;48.218;16.414;2023-02-15T08:54:55;16.70;;;11.48;;
39102;SDS011;24847;48.218;16.414;2023-02-15T08:59:58;16.85;;;11.60;;
39102;SDS011;24847;48.218;16.414;2023-02-15T09:05:00;15.88;;;11.52;;
39102;SDS011;24847;48.218;16.414;2023-02-15T09:10:04;16.88;;;11.35;;
39102;SDS011;24847;48.218;16.414;2023-02-15T09:15:08;16.35;;;11.43;;
39102;SDS011;24847;48.218;16.414;2023-02-15T09:20:11;18.10;;;11.82;;
39102;SDS011;24847;48.218;16.414;2023-02-15T09:25:15;19.63;;;12.70;;
39102;SDS011;24847;48.218;16.414;2023-02-15T09:30:18;18.30;;;12.40;;
39102;SDS011;24847;48.218;16.414;2023-02-15T09:35:20;17.70;;;12.52;;
39102;SDS011;24847;48.218;16.414;2023-02-15T09:40:24;17.52;;;12.18;;
39102;SDS011;24847;48.218;16.414;2023-02-15T09:45:29;16.10;;;11.32;;
39102;SDS011;24847;48.218;16.414;2023-02-15T09:50:54;17.58;;;11.95;;
39102;SDS011;24847;48.218;16.414;2023-02-15T09:56:13;16.57;;;11.53;;
39102;SDS011;24847;48.218;16.414;2023-02-15T10:01:24;17.45;;;12.27;;
39102;SDS011;24847;48.218;16.414;2023-02-15T10:06:36;16.23;;;11.77;;
39102;SDS011;24847;48.218;16.414;2023-02-15T10:11:50;16.50;;;11.70;;
39102;SDS011;24847;48.218;16.414;2023-02-15T10:17:09;16.17;;;11.50;;
39102;SDS011;24847;48.218;16.414;2023-02-15T10:22:30;20.02;;;13.35;;
39102;SDS011;24847;48.218;16.414;2023-02-15T10:27:49;17.83;;;12.00;;
39102;SDS011;24847;48.218;16.414;2023-02-15T10:32:55;19.70;;;13.43;;
39102;SDS011;24847;48.218;16.414;2023-02-15T10:38:04;17.15;;;12.52;;
39102;SDS011;24847;48.218;16.414;2023-02-15T10:43:43;29.45;;;18.70;;
39102;SDS011;24847;48.218;16.414;2023-02-15T10:49:09;18.75;;;13.05;;
39102;SDS011;24847;48.218;16.414;2023-02-15T10:54:30;18.55;;;12.20;;
39102;SDS011;24847;48.218;16.414;2023-02-15T10:59:53;16.75;;;12.13;;
39102;SDS011;24847;48.218;16.414;2023-02-15T11:05:16;19.60;;;12.57;;
39102;SDS011;24847;48.218;16.414;2023-02-15T11:10:30;16.50;;;11.77;;
39102;SDS011;24847;48.218;16.414;2023-02-15T11:15:39;17.08;;;12.40;;
39102;SDS011;24847;48.218;16.414;2023-02-15T11:20:48;18.33;;;12.23;;
39102;SDS011;24847;48.218;16.414;2023-02-15T11:25:56;17.83;;;12.13;;
39102;SDS011;24847;48.218;16.414;2023-02-15T11:31:12;16.60;;;11.50;;
39102;SDS011;24847;48.218;16.414;2023-02-15T11:36:19;20.25;;;13.75;;
39102;SDS011;24847;48.218;16.414;2023-02-15T11:41:27;18.27;;;12.60;;
39102;SDS011;24847;48.218;16.414;2023-02-15T11:46:34;19.20;;;13.30;;
39102;SDS011;24847;48.218;16.414;2023-02-15T11:51:38;19.17;;;12.77;;
39102;SDS011;24847;48.218;16.414;2023-02-15T11:56:42;17.70;;;11.88;;
39102;SDS011;24847;48.218;16.414;2023-02-15T12:01:45;17.77;;;11.93;;
39102;SDS011;24847;48.218;16.414;2023-02-15T12:06:49;15.55;;;10.98;;
39102;SDS011;24847;48.218;16.414;2023-02-15T12:17:27;18.17;;;10.88;;
39102;SDS011;24847;48.218;16.414;2023-02-15T12:22:31;16.52;;;11.60;;
39102;SDS011;24847;48.218;16.414;2023-02-15T12:27:37;18.40;;;12.30;;
39102;SDS011;24847;48.218;16.414;2023-02-15T12:32:48;19.65;;;12.77;;
39102;SDS011;24847;48.218;16.414;2023-02-15T12:37:54;20.15;;;13.40;;
39102;SDS011;24847;48.218;16.414;2023-02-15T12:42:59;19.98;;;13.65;;
39102;SDS011;24847;48.218;16.414;2023-02-15T12:48:13;25.30;;;16.30;;
39102;SDS011;24847;48.218;16.414;2023-02-15T12:53:19;19.77;;;12.32;;
39102;SDS011;24847;48.218;16.414;2023-02-15T12:58:24;19.88;;;13.57;;
39102;SDS011;24847;48.218;16.414;2023-02-15T13:03:29;18.73;;;12.75;;
39102;SDS011;24847;48.218;16.414;2023-02-15T13:08:33;18.75;;;13.00;;
39102;SDS011;24847;48.218;16.414;2023-02-15T13:13:47;17.67;;;12.52;;
39102;SDS011;24847;48.218;16.414;2023-02-15T13:18:56;18.80;;;13.55;;
39102;SDS011;24847;48.218;16.414;2023-02-15T13:24:00;19.42;;;13.38;;
39102;SDS011;24847;48.218;16.414;2023-02-15T13:29:08;20.23;;;13.20;;
39102;SDS011;24847;48.218;16.414;2023-02-15T13:34:22;19.27;;;13.90;;
39102;SDS011;24847;48.218;16.414;2023-02-15T13:39:29;18.98;;;12.82;;
39102;SDS011;24847;48.218;16.414;2023-02-15T13:50:35;22.45;;;13.52;;
39102;SDS011;24847;48.218;16.414;2023-02-15T13:55:50;23.20;;;16.25;;
39102;SDS011;24847;48.218;16.414;2023-02-15T14:00:58;20.13;;;14.13;;
39102;SDS011;24847;48.218;16.414;2023-02-15T14:06:14;18.38;;;13.00;;
39102;SDS011;24847;48.218;16.414;2023-02-15T14:11:32;22.02;;;12.82;;
39102;SDS011;24847;48.218;16.414;2023-02-15T14:16:45;17.33;;;12.48;;
39102;SDS011;24847;48.218;16.414;2023-02-15T14:21:59;18.95;;;12.95;;
39102;SDS011;24847;48.218;16.414;2023-02-15T14:27:13;22.63;;;15.65;;
39102;SDS011;24847;48.218;16.414;2023-02-15T14:32:44;19.92;;;14.27;;
39102;SDS011;24847;48.218;16.414;2023-02-15T14:37:52;21.00;;;13.55;;
39102;SDS011;24847;48.218;16.414;2023-02-15T14:43:04;19.23;;;13.68;;
39102;SDS011;24847;48.218;16.414;2023-02-15T14:48:12;21.02;;;14.88;;
39102;SDS011;24847;48.218;16.414;2023-02-15T15:04:21;21.50;;;14.88;;
39102;SDS011;24847;48.218;16.414;2023-02-15T15:09:33;20.95;;;14.32;;
39102;SDS011;24847;48.218;16.414;2023-02-15T15:14:39;21.63;;;15.50;;
39102;SDS011;24847;48.218;16.414;2023-02-15T15:36:04;20.98;;;14.90;;
39102;SDS011;24847;48.218;16.414;2023-02-15T15:41:56;21.05;;;14.32;;
39102;SDS011;24847;48.218;16.414;2023-02-15T15:47:10;20.52;;;14.10;;
39102;SDS011;24847;48.218;16.414;2023-02-15T15:52:29;20.85;;;14.65;;
39102;SDS011;24847;48.218;16.414;2023-02-15T15:57:39;21.90;;;14.68;;
39102;SDS011;24847;48.218;16.414;2023-02-15T16:02:49;22.13;;;14.63;;
39102;SDS011;24847;48.218;16.414;2023-02-15T16:07:52;22.23;;;15.20;;
39102;SDS011;24847;48.218;16.414;2023-02-15T16:12:56;21.40;;;14.70;;
39102;SDS011;24847;48.218;16.414;2023-02-15T16:17:59;23.05;;;15.05;;
39102;SDS011;24847;48.218;16.414;2023-02-15T16:23:07;22.00;;;14.30;;
39102;SDS011;24847;48.218;16.414;2023-02-15T16:28:37;26.88;;;17.00;;
39102;SDS011;24847;48.218;16.414;2023-02-15T16:33:43;21.80;;;15.13;;
39102;SDS011;24847;48.218;16.414;2023-02-15T16:39:06;22.58;;;14.68;;
39102;SDS011;24847;48.218;16.414;2023-02-15T16:44:20;19.92;;;13.85;;
39102;SDS011;24847;48.218;16.414;2023-02-15T16:49:24;23.00;;;14.73;;
39102;SDS011;24847;48.218;16.414;2023-02-15T16:54:29;24.70;;;14.95;;
39102;SDS011;24847;48.218;16.414;2023-02-15T16:59:37;23.92;;;15.77;;
39102;SDS011;24847;48.218;16.414;2023-02-15T17:04:43;21.00;;;14.33;;
39102;SDS011;24847;48.218;16.414;2023-02-15T17:09:50;22.80;;;14.82;;
39102;SDS011;24847;48.218;16.414;2023-02-15T17:15:02;21.88;;;14.82;;
39102;SDS011;24847;48.218;16.414;2023-02-15T17:20:10;24.13;;;15.65;;
39102;SDS011;24847;48.218;16.414;2023-02-15T17:25:18;23.02;;;15.35;;
39102;SDS011;24847;48.218;16.414;2023-02-15T17:30:29;25.13;;;15.43;;
39102;SDS011;24847;48.218;16.414;2023-02-15T17:35:34;24.17;;;16.17;;
39102;SDS011;24847;48.218;16.414;2023-02-15T17:40:38;24.48;;;16.20;;
39102;SDS011;24847;48.218;16.414;2023-02-15T17:45:44;25.33;;;16.63;;
39102;SDS011;24847;48.218;16.414;2023-02-15T17:50:51;26.57;;;16.00;;
39102;SDS011;24847;48.218;16.414;2023-02-15T17:55:55;26.60;;;16.90;;
39102;SDS011;24847;48.218;16.414;2023-02-15T18:01:02;25.08;;;15.98;;
39102;SDS011;24847;48.218;16.414;2023-02-15T18:06:29;26.08;;;16.17;;
39102;SDS011;24847;48.218;16.414;2023-02-15T18:11:51;28.90;;;16.55;;
39102;SDS011;24847;48.218;16.414;2023-02-15T18:17:01;26.80;;;17.42;;
39102;SDS011;24847;48.218;16.414;2023-02-15T18:22:07;28.45;;;17.75;;
39102;SDS011;24847;48.218;16.414;2023-02-15T18:27:14;27.15;;;16.65;;
39102;SDS011;24847;48.218;16.414;2023-02-15T18:32:21;26.50;;;17.35;;
39102;SDS011;24847;48.218;16.414;2023-02-15T18:37:33;26.15;;;17.05;;
39102;SDS011;24847;48.218;16.414;2023-02-15T18:42:37;26.02;;;17.65;;
39102;SDS011;24847;48.218;16.414;2023-02-15T18:47:48;29.20;;;18.03;;
39102;SDS011;24847;48.218;16.414;2023-02-15T18:52:55;27.33;;;17.65;;
39102;SDS011;24847;48.218;16.414;2023-02-15T18:57:58;28.10;;;18.02;;
39102;SDS011;24847;48.218;16.414;2023-02-15T19:03:04;27.00;;;17.85;;
39102;SDS011;24847;48.218;16.414;2023-02-15T19:08:08;26.55;;;17.20;;
39102;SDS011;24847;48.218;16.414;2023-02-15T19:13:21;26.65;;;17.08;;
39102;SDS011;24847;48.218;16.414;2023-02-15T19:18:26;27.10;;;17.58;;
39102;SDS011;24847;48.218;16.414;2023-02-15T19:23:30;30.75;;;18.58;;
39102;SDS011;24847;48.218;16.414;2023-02-15T19:28:36;27.80;;;17.92;;
39102;SDS011;24847;48.218;16.414;2023-02-15T19:33:41;29.65;;;17.98;;
39102;SDS011;24847;48.218;16.414;2023-02-15T19:38:47;28.92;;;17.30;;
39102;SDS011;24847;48.218;16.414;2023-02-15T19:43:54;30.38;;;18.08;;
39102;SDS011;24847;48.218;16.414;2023-02-15T19:49:00;27.77;;;18.58;;
39102;SDS011;24847;48.218;16.414;2023-02-15T19:54:09;26.85;;;17.77;;
39102;SDS011;24847;48.218;16.414;2023-02-15T19:59:32;29.35;;;17.95;;
39102;SDS011;24847;48.218;16.414;2023-02-15T20:04:37;29.55;;;19.48;;
39102;SDS011;24847;48.218;16.414;2023-02-15T20:09:43;30.50;;;19.35;;
39102;SDS011;24847;48.218;16.414;2023-02-15T20:14:47;27.50;;;18.25;;
39102;SDS011;24847;48.218;16.414;2023-02-15T20:19:53;29.15;;;18.02;;
39102;SDS011;24847;48.218;16.414;2023-02-15T20:24:57;29.60;;;18.70;;
39102;SDS011;24847;48.218;16.414;2023-02-15T20:30:01;30.42;;;18.92;;
39102;SDS011;24847;48.218;16.414;2023-02-15T20:35:13;30.25;;;18.85;;
39102;SDS011;24847;48.218;16.414;2023-02-15T20:40:19;32.55;;;19.70;;
39102;SDS011;24847;48.218;16.414;2023-02-15T20:45:26;31.98;;;19.90;;
39102;SDS011;24847;48.218;16.414;2023-02-15T20:50:33;32.80;;;19.63;;
39102;SDS011;24847;48.218;16.414;2023-02-15T20:55:38;31.85;;;20.15;;
39102;SDS011;24847;48.218;16.414;2023-02-15T21:00:43;30.95;;;19.63;;
39102;SDS011;24847;48.218;16.414;2023-02-15T21:05:49;28.85;;;19.30;;
39102;SDS011;24847;48.218;16.414;2023-02-15T21:10:55;33.30;;;20.20;;
39102;SDS011;24847;48.218;16.414;2023-02-15T21:15:58;31.67;;;20.67;;
39102;SDS011;24847;48.218;16.414;2023-02-15T21:21:08;31.88;;;19.88;;
39102;SDS011;24847;48.218;16.414;2023-02-15T21:26:19;31.17;;;19.10;;
39102;SDS011;24847;48.218;16.414;2023-02-15T21:31:24;31.83;;;18.85;;
39102;SDS011;24847;48.218;16.414;2023-02-15T21:36:31;32.60;;;20.00;;
39102;SDS011;24847;48.218;16.414;2023-02-15T21:41:34;31.70;;;19.73;;
39102;SDS011;24847;48.218;16.414;2023-02-15T21:46:55;32.60;;;19.40;;
39102;SDS011;24847;48.218;16.414;2023-02-15T21:52:18;34.00;;;20.17;;
39102;SDS011;24847;48.218;16.414;2023-02-15T21:57:24;33.70;;;19.05;;
39102;SDS011;24847;48.218;16.414;2023-02-15T22:02:27;31.90;;;20.00;;
39102;SDS011;24847;48.218;16.414;2023-02-15T22:07:32;32.55;;;20.33;;
39102;SDS011;24847;48.218;16.414;2023-02-15T22:12:35;31.60;;;20.05;;
39102;SDS011;24847;48.218;16.414;2023-02-15T22:17:38;32.88;;;20.95;;
39102;SDS011;24847;48.218;16.414;2023-02-15T22:22:42;36.10;;;22.33;;
39102;SDS011;24847;48.218;16.414;2023-02-15T22:27:44;36.10;;;21.27;;
39102;SDS011;24847;48.218;16.414;2023-02-15T22:32:48;34.88;;;20.80;;
39102;SDS011;24847;48.218;16.414;2023-02-15T22:37:51;33.17;;;21.13;;
39102;SDS011;24847;48.218;16.414;2023-02-15T22:42:54;34.22;;;20.30;;
39102;SDS011;24847;48.218;16.414;2023-02-15T22:47:59;33.45;;;21.20;;
39102;SDS011;24847;48.218;16.414;2023-02-15T22:53:04;35.40;;;21.30;;
39102;SDS011;24847;48.218;16.414;2023-02-15T22:58:06;33.97;;;20.70;;
39102;SDS011;24847;48.218;16.414;2023-02-15T23:03:22;31.60;;;20.23;;
39102;SDS011;24847;48.218;16.414;2023-02-15T23:08:29;34.38;;;21.23;;
39102;SDS011;24847;48.218;16.414;2023-02-15T23:13:31;30.17;;;19.98;;
39102;SDS011;24847;48.218;16.414;2023-02-15T23:18:37;33.55;;;21.35;;
39102;SDS011;24847;48.218;16.414;2023-02-15T23:23:44;34.63;;;21.38;;
39102;SDS011;24847;48.218;16.414;2023-02-15T23:28:49;34.70;;;20.45;;
39102;SDS011;24847;48.218;16.414;2023-02-15T23:33:52;34.67;;;21.25;;
39102;SDS011;24847;48.218;16.414;2023-02-15T23:38:57;33.25;;;20.55;;
39102;SDS011;24847;48.218;16.414;2023-02-15T23:44:22;32.88;;;20.70;;
39102;SDS011;24847;48.218;16.414;2023-02-15T23:49:24;36.72;;;21.25;;
39102;SDS011;24847;48.218;16.414;2023-02-15T23:54:29;34.65;;;20.73;;
39102;SDS011;24847;48.218;16.414;2023-02-15T23:59:31;34.60;;;21.42;;
